Time;durP1;ratioP1;P1;durP2;ratioP2;P2;SDS_P1;SDS_P2;PMS_P1;PMS_P2;Temp;Humidity;BMP_temperature;BMP_pressure;BME280_temperature;BME280_humidity;BME280_pressure;Samples;Min_cycle;Max_cycle;Signal;HPM_P1;HPM_P2
2023/09/15 00:00:23;;;;;;;1.73;1.10;;;14.60;99.90;;;14.79;100.00;101418.91;5209419;28;20053;-51
2023/09/15 00:02:57;;;;;;;1.52;1.20;;;14.60;99.90;;;14.74;100.00;101415.28;5208653;28;20044;-51
2023/09/15 00:05:33;;;;;;;1.38;1.17;;;14.50;99.90;;;14.69;100.00;101416.91;5209234;28;20071;-51
2023/09/15 00:08:07;;;;;;;2.55;1.20;;;14.50;99.90;;;14.66;100.00;101419.41;5207394;28;20077;-51
2023/09/15 00:10:41;;;;;;;1.95;1.30;;;14.50;99.90;;;14.64;100.00;101418.50;5208617;28;20050;-51
2023/09/15 00:13:14;;;;;;;2.90;1.23;;;14.40;99.90;;;14.61;100.00;101413.19;5205583;28;20513;-51
2023/09/15 00:15:50;;;;;;;1.73;1.30;;;14.40;99.90;;;14.61;100.00;101416.69;5209916;28;20041;-51
2023/09/15 00:18:25;;;;;;;2.03;1.27;;;14.40;99.90;;;14.59;100.00;101409.59;5207132;28;20046;-53
2023/09/15 00:20:59;;;;;;;2.95;1.40;;;14.40;99.90;;;14.57;100.00;101408.69;5211368;28;20045;-51
2023/09/15 00:23:31;;;;;;;7.30;1.80;;;14.30;99.90;;;14.59;100.00;101414.84;5214279;28;20053;-51
2023/09/15 00:26:04;;;;;;;1.80;1.17;;;14.40;99.90;;;14.59;100.00;101410.47;5210200;28;20072;-51
2023/09/15 00:28:37;;;;;;;2.15;1.30;;;14.40;99.90;;;14.60;100.00;101411.38;5209378;28;20052;-53
2023/09/15 00:31:10;;;;;;;1.67;1.40;;;14.40;99.90;;;14.60;100.00;101406.13;5206516;28;20050;-52
2023/09/15 00:33:43;;;;;;;2.05;1.23;;;14.40;99.90;;;14.58;100.00;101405.19;5207453;28;20516;-53
2023/09/15 00:36:17;;;;;;;2.38;1.27;;;14.40;99.90;;;14.57;100.00;101411.31;5196744;28;20534;-53
2023/09/15 00:38:49;;;;;;;2.50;1.30;;;14.40;99.90;;;14.58;100.00;101407.81;5198845;28;20037;-51
2023/09/15 00:41:21;;;;;;;3.80;1.60;;;14.40;99.90;;;14.56;100.00;101404.28;5213007;28;20054;-53
2023/09/15 00:43:54;;;;;;;2.75;1.38;;;14.40;99.90;;;14.53;100.00;101401.56;5206755;28;20048;-53
2023/09/15 00:46:26;;;;;;;1.90;1.10;;;14.30;99.90;;;14.48;100.00;101400.56;5209783;28;20044;-52
2023/09/15 00:49:01;;;;;;;2.10;1.20;;;14.30;99.90;;;14.43;100.00;101402.13;5210306;28;20568;-52
2023/09/15 00:51:35;;;;;;;2.00;1.10;;;14.30;99.90;;;14.39;100.00;101396.75;5214215;28;20760;-51
2023/09/15 00:54:08;;;;;;;4.10;1.33;;;14.20;99.90;;;14.36;100.00;101395.81;5196341;28;20526;-52
2023/09/15 00:56:41;;;;;;;3.03;1.50;;;14.20;99.90;;;14.34;100.00;101393.16;5211660;28;20068;-51
2023/09/15 00:59:14;;;;;;;1.90;1.30;;;14.20;99.90;;;14.32;100.00;101394.81;5215088;28;20479;-52
2023/09/15 01:01:47;;;;;;;1.90;1.17;;;14.20;99.90;;;14.32;100.00;101394.81;5212020;28;20526;-51
2023/09/15 01:04:20;;;;;;;2.90;1.30;;;14.10;99.90;;;14.29;100.00;101393.84;5210237;28;20045;-52
2023/09/15 01:06:55;;;;;;;2.67;1.30;;;14.10;99.90;;;14.26;100.00;101389.38;5211765;28;20136;-53
2023/09/15 01:09:29;;;;;;;2.85;1.65;;;14.10;99.90;;;14.25;100.00;101386.72;5204437;28;20131;-51
2023/09/15 01:12:04;;;;;;;2.03;1.27;;;14.10;99.90;;;14.23;100.00;101388.44;5209010;28;20096;-50
2023/09/15 01:14:36;;;;;;;3.55;1.70;;;14.00;99.90;;;14.22;100.00;101386.66;5211710;28;20416;-54
2023/09/15 01:17:21;;;;;;;1.70;1.20;;;14.00;99.90;;;14.21;100.00;101377.88;5196888;28;20140;-52
2023/09/15 01:20:09;;;;;;;2.45;1.38;;;14.00;99.90;;;14.20;100.00;101375.22;5218896;28;20041;-52
2023/09/15 01:23:12;;;;;;;3.08;1.40;;;14.00;99.90;;;14.19;100.00;101374.31;5216219;28;20095;-51
2023/09/15 01:26:14;;;;;;;3.42;1.33;;;14.00;99.90;;;14.15;100.00;101369.84;5210436;28;20049;-51
2023/09/15 01:29:31;;;;;;;2.00;1.30;;;14.00;99.90;;;14.13;100.00;101366.28;5223119;23;20045;-70
2023/09/15 01:32:07;;;;;;;2.08;1.20;;;14.00;99.90;;;14.10;100.00;101374.06;5200423;28;20400;-70
2023/09/15 01:34:40;;;;;;;3.17;1.25;;;13.90;99.90;;;14.09;100.00;101374.91;5201246;28;20046;-68
2023/09/15 01:37:12;;;;;;;2.13;1.50;;;13.90;99.90;;;14.04;100.00;101366.03;5169187;28;20041;-69
2023/09/15 01:39:45;;;;;;;3.63;1.35;;;13.90;99.90;;;14.02;100.00;101362.47;5178375;28;20054;-68
2023/09/15 01:42:17;;;;;;;2.60;1.48;;;13.90;99.90;;;14.03;100.00;101361.63;5183601;28;20046;-69
2023/09/15 01:44:50;;;;;;;2.55;1.30;;;13.90;99.90;;;14.05;100.00;101362.56;5186329;28;20392;-69
2023/09/15 01:47:25;;;;;;;1.65;1.20;;;13.90;99.90;;;14.05;100.00;101365.16;5196927;28;20050;-69
2023/09/15 01:49:57;;;;;;;;;;;13.90;99.90;;;14.02;100.00;101367.72;5181524;28;20040;-68
2023/09/15 01:52:33;;;;;;;3.47;1.40;;;13.80;99.90;;;14.01;100.00;101371.16;5197516;28;19921;-68
2023/09/15 01:55:08;;;;;;;1.55;1.13;;;13.80;99.90;;;13.98;100.00;101374.59;5186210;28;20053;-69
2023/09/15 01:57:41;;;;;;;1.60;1.23;;;13.80;99.90;;;14.00;100.00;101375.50;5182079;28;20061;-69
2023/09/15 02:00:14;;;;;;;3.10;1.20;;;13.80;99.90;;;14.00;100.00;101375.50;5184227;28;20046;-70
2023/09/15 02:02:51;;;;;;;2.22;1.23;;;13.80;99.90;;;14.02;100.00;101367.72;5195548;28;20033;-68
2023/09/15 02:05:25;;;;;;;3.35;1.35;;;13.80;99.90;;;13.98;100.00;101365.84;5180956;28;20470;-68
2023/09/15 02:07:59;;;;;;;2.08;1.27;;;13.80;99.90;;;13.98;100.00;101371.06;5183479;28;20123;-69
2023/09/15 02:10:31;;;;;;;1.60;1.08;;;13.80;99.90;;;13.96;100.00;101375.41;5195853;28;20057;-69
2023/09/15 02:13:04;;;;;;;2.42;1.40;;;13.80;99.90;;;13.93;100.00;101372.66;5202449;28;20042;-69
2023/09/15 02:15:36;;;;;;;3.30;1.30;;;13.70;99.90;;;13.90;100.00;101375.22;5182672;28;20444;-69
2023/09/15 02:18:10;;;;;;;2.67;1.13;;;13.70;99.90;;;13.84;100.00;101371.56;5183844;28;20050;-68
2023/09/15 02:20:42;;;;;;;2.53;1.30;;;13.70;99.90;;;13.82;100.00;101368.00;5180134;28;20053;-70
2023/09/15 02:23:14;;;;;;;1.40;0.85;;;13.70;99.90;;;13.80;100.00;101367.03;5186838;28;20050;-70
2023/09/15 02:25:46;;;;;;;2.30;1.35;;;13.60;99.90;;;13.78;100.00;101368.75;5183128;28;20049;-69
2023/09/15 02:28:19;;;;;;;1.90;1.38;;;13.60;99.90;;;13.77;100.00;101364.34;5198444;28;20424;-70
2023/09/15 02:30:52;;;;;;;3.05;1.20;;;13.60;99.90;;;13.77;100.00;101361.72;5181610;28;20049;-69
2023/09/15 02:33:25;;;;;;;2.63;1.30;;;13.60;99.90;;;13.75;100.00;101360.75;5205587;28;20057;-69
2023/09/15 02:35:58;;;;;;;3.25;1.50;;;13.60;99.90;;;13.70;100.00;101365.00;5181287;28;20046;-69
2023/09/15 02:38:30;;;;;;;2.90;1.40;;;13.60;99.90;;;13.68;100.00;101361.41;5183734;28;20042;-70
2023/09/15 02:41:03;;;;;;;2.25;1.20;;;13.50;99.90;;;13.67;100.00;101354.41;5183877;28;20038;-70
2023/09/15 02:43:37;;;;;;;2.75;1.15;;;13.50;99.90;;;13.67;100.00;101348.28;5196944;28;20100;-70
2023/09/15 02:46:09;;;;;;;2.20;1.30;;;13.50;99.90;;;13.66;100.00;101346.50;5166725;28;20411;-71
2023/09/15 02:48:43;;;;;;;1.80;1.20;;;13.50;99.90;;;13.65;100.00;101348.25;5184420;28;20423;-69
2023/09/15 02:51:16;;;;;;;2.47;1.27;;;13.50;99.90;;;13.66;100.00;101349.13;5183486;28;20133;-69
2023/09/15 02:53:48;;;;;;;2.15;1.13;;;13.50;99.90;;;13.64;100.00;101341.22;5180809;28;20357;-69
2023/09/15 02:56:23;;;;;;;1.73;1.13;;;13.50;99.90;;;13.63;100.00;101344.69;5184730;28;20045;-70
2023/09/15 02:58:58;;;;;;;2.90;1.50;;;13.50;99.90;;;13.63;100.00;101342.06;5186636;28;20088;-71
2023/09/15 03:01:30;;;;;;;2.40;1.40;;;13.50;99.90;;;13.61;100.00;101346.34;5183080;28;20038;-69
2023/09/15 03:04:05;;;;;;;2.28;1.52;;;13.50;99.90;;;13.58;100.00;101343.66;5196412;28;20050;-68
2023/09/15 03:06:40;;;;;;;2.45;1.50;;;13.50;99.90;;;13.59;100.00;101342.81;5185278;28;20534;-69
2023/09/15 03:09:13;;;;;;;3.45;1.45;;;13.50;99.90;;;13.56;100.00;101340.06;5167021;28;20482;-69
2023/09/15 03:11:46;;;;;;;2.60;1.33;;;13.40;99.90;;;13.52;100.00;101341.72;5182962;28;20065;-68
2023/09/15 03:14:18;;;;;;;2.78;1.52;;;13.40;99.90;;;13.53;100.00;101334.75;5193481;28;20074;-68
2023/09/15 03:16:51;;;;;;;2.60;1.60;;;13.40;99.90;;;13.50;100.00;101345.16;5181395;28;20534;-69
2023/09/15 03:19:26;;;;;;;3.22;1.45;;;13.40;99.90;;;13.50;100.00;101339.91;5199213;28;20050;-68
2023/09/15 03:21:58;;;;;;;2.00;1.38;;;13.40;99.90;;;13.49;100.00;101343.34;5166567;28;20030;-68
2023/09/15 03:24:31;;;;;;;2.75;1.35;;;13.40;99.90;;;13.48;100.00;101337.22;5197925;28;20052;-68
2023/09/15 03:27:05;;;;;;;2.78;1.58;;;13.40;99.90;;;13.44;100.00;101338.00;5183072;28;20034;-69
2023/09/15 03:29:38;;;;;;;2.40;1.52;;;13.30;99.90;;;13.42;100.00;101330.91;5182696;28;20050;-69
2023/09/15 03:32:10;;;;;;;3.08;1.30;;;13.30;99.90;;;13.40;100.00;101322.13;5183334;28;20042;-69
2023/09/15 03:34:44;;;;;;;2.67;1.42;;;13.30;99.90;;;13.39;100.00;101325.59;5200242;28;20054;-68
2023/09/15 03:37:16;;;;;;;2.90;1.55;;;13.30;99.90;;;13.35;100.00;101318.47;5181901;28;20045;-70
2023/09/15 03:39:51;;;;;;;3.13;1.65;;;13.30;99.90;;;13.35;100.00;101319.34;5181488;28;20178;-69
2023/09/15 03:42:23;;;;;;;2.10;1.23;;;13.30;99.90;;;13.33;100.00;101315.81;5181481;28;20053;-69
2023/09/15 03:44:55;;;;;;;2.60;1.25;;;13.20;99.90;;;13.33;100.00;101314.91;5200280;28;20054;-69
2023/09/15 03:47:28;;;;;;;3.60;1.50;;;13.20;99.90;;;13.31;100.00;101320.09;5197927;28;20056;-69
2023/09/15 03:50:02;;;;;;;2.08;1.25;;;13.20;99.90;;;13.30;100.00;101321.84;5182518;28;20140;-69
2023/09/15 03:52:38;;;;;;;2.53;1.20;;;13.20;99.90;;;13.27;100.00;101321.72;5202103;28;20050;-68
2023/09/15 03:55:11;;;;;;;2.58;1.50;;;13.10;99.90;;;13.26;100.00;101319.94;5184209;28;20049;-68
2023/09/15 03:57:43;;;;;;;2.83;1.58;;;13.20;99.90;;;13.23;100.00;101317.22;5193662;28;20109;-68
2023/09/15 04:00:17;;;;;;;1.83;1.20;;;13.10;99.90;;;13.21;100.00;101318.91;5183563;28;20126;-69
2023/09/15 04:02:50;;;;;;;2.40;1.30;;;13.10;99.90;;;13.19;100.00;101320.56;5182175;28;20072;-68
2023/09/15 04:05:23;;;;;;;4.57;1.70;;;13.00;99.90;;;13.18;100.00;101316.19;5182645;28;20049;-69
2023/09/15 04:07:56;;;;;;;2.15;1.13;;;13.00;99.90;;;13.17;100.00;101314.41;5163857;28;20049;-70
2023/09/15 04:10:28;;;;;;;3.53;1.50;;;13.00;99.90;;;13.17;100.00;101314.41;5189003;28;20120;-68
2023/09/15 04:13:01;;;;;;;3.08;1.75;;;13.00;99.90;;;13.12;100.00;101329.06;5195695;28;20042;-69
2023/09/15 04:15:33;;;;;;;2.80;1.55;;;13.00;99.90;;;13.06;100.00;101318.38;5180878;28;20050;-69
2023/09/15 04:18:08;;;;;;;3.17;1.30;;;13.00;99.90;;;13.03;100.00;101326.13;5196492;28;20088;-69
2023/09/15 04:20:43;;;;;;;3.03;1.70;;;12.90;99.90;;;13.02;100.00;101324.34;5194138;28;20042;-69
2023/09/15 04:23:15;;;;;;;2.33;1.13;;;12.90;99.90;;;13.02;100.00;101321.72;5185309;28;20129;-68
2023/09/15 04:25:49;;;;;;;2.60;1.35;;;12.90;99.90;;;13.01;100.00;101317.34;5180202;28;20514;-69
2023/09/15 04:28:22;;;;;;;3.47;1.50;;;12.90;99.90;;;13.01;100.00;101317.34;5197813;28;20038;-69
2023/09/15 04:30:54;;;;;;;4.05;1.50;;;12.90;99.90;;;12.98;100.00;101318.13;5196974;28;20049;-69
2023/09/15 04:33:27;;;;;;;1.98;1.23;;;12.90;99.90;;;12.95;100.00;101322.38;5199792;28;20049;-69
2023/09/15 04:36:01;;;;;;;2.67;1.30;;;12.80;99.90;;;12.93;100.00;101321.44;5201023;28;20053;-70
2023/09/15 04:38:33;;;;;;;1.83;1.30;;;12.80;99.90;;;12.91;100.00;101321.38;5201068;28;20038;-69
2023/09/15 04:41:06;;;;;;;2.17;1.10;;;12.80;99.90;;;12.89;100.00;101322.16;5195867;28;20060;-69
2023/09/15 04:43:38;;;;;;;2.15;1.08;;;12.80;99.90;;;12.86;100.00;101322.06;5185524;28;20056;-69
2023/09/15 04:46:11;;;;;;;2.47;1.63;;;12.70;99.90;;;12.86;100.00;101329.91;5187472;28;20137;-69
2023/09/15 04:48:44;;;;;;;4.35;1.50;;;12.80;99.90;;;12.85;100.00;101322.91;5185678;28;20041;-69
2023/09/15 04:51:19;;;;;;;2.53;1.23;;;12.70;99.90;;;12.83;100.00;101325.44;5179429;28;20057;-69
2023/09/15 04:53:51;;;;;;;2.35;1.52;;;12.70;99.90;;;12.82;100.00;101325.41;5181960;28;20077;-68
2023/09/15 04:56:23;;;;;;;3.03;1.20;;;12.70;99.90;;;12.79;100.00;101331.44;5170714;28;20061;-69
2023/09/15 04:58:55;;;;;;;2.08;1.33;;;12.70;99.90;;;12.79;100.00;101328.81;5165876;28;20066;-71
2023/09/15 05:01:28;;;;;;;1.88;1.20;;;12.70;99.90;;;12.81;100.00;101331.47;5185269;28;20054;-69
2023/09/15 05:04:00;;;;;;;1.83;1.13;;;12.70;99.90;;;12.80;100.00;101332.31;5164910;28;20045;-69
2023/09/15 05:06:33;;;;;;;1.95;1.38;;;12.70;99.90;;;12.79;100.00;101331.44;5183253;28;20125;-70
2023/09/15 05:09:08;;;;;;;2.60;1.25;;;12.70;99.90;;;12.77;100.00;101333.97;5185742;28;20520;-69
2023/09/15 05:11:41;;;;;;;3.33;1.35;;;12.70;99.90;;;12.76;100.00;101329.59;5185490;28;20424;-68
2023/09/15 05:14:13;;;;;;;3.42;1.75;;;12.60;99.90;;;12.76;100.00;101332.19;5192060;28;20057;-68
2023/09/15 05:16:46;;;;;;;3.00;1.50;;;12.60;99.90;;;12.75;100.00;101338.28;5201259;28;20423;-69
2023/09/15 05:19:18;;;;;;;2.95;1.27;;;12.60;99.90;;;12.73;100.00;101339.97;5201960;28;20100;-69
2023/09/15 05:21:51;;;;;;;3.00;1.48;;;12.70;99.90;;;12.75;100.00;101340.00;5201179;28;20070;-69
2023/09/15 05:24:24;;;;;;;3.35;1.20;;;12.70;99.90;;;12.76;100.00;101345.28;5204081;28;20473;-68
2023/09/15 05:26:57;;;;;;;2.80;1.38;;;12.70;99.90;;;12.76;100.00;101342.66;5202578;28;20096;-70
2023/09/15 05:29:29;;;;;;;3.08;1.30;;;12.70;99.90;;;12.79;100.00;101343.63;5201649;28;20408;-69
2023/09/15 05:32:02;;;;;;;4.30;1.67;;;12.70;99.90;;;12.79;100.00;101341.00;5183894;28;20113;-68
2023/09/15 05:34:34;;;;;;;3.42;1.48;;;12.70;99.90;;;12.79;100.00;101341.91;5184995;28;20046;-69
2023/09/15 05:37:10;;;;;;;1.88;1.13;;;12.70;99.90;;;12.79;100.00;101335.78;5193738;28;20423;-69
2023/09/15 05:39:42;;;;;;;3.42;1.55;;;12.70;99.90;;;12.81;100.00;101344.56;5197645;28;20363;-70
2023/09/15 05:42:15;;;;;;;2.38;1.38;;;12.70;99.90;;;12.83;100.00;101338.53;5203745;28;20042;-69
2023/09/15 05:44:47;;;;;;;3.30;1.38;;;12.70;99.90;;;12.87;100.00;101339.53;5185731;28;20046;-70
2023/09/15 05:47:19;;;;;;;2.63;1.35;;;12.80;99.90;;;12.89;100.00;101338.75;5186559;28;20046;-70
2023/09/15 05:49:52;;;;;;;2.83;1.40;;;12.80;99.90;;;12.93;100.00;101345.00;5193557;28;20042;-69
2023/09/15 05:52:26;;;;;;;2.78;1.27;;;12.80;99.90;;;12.96;100.00;101345.97;5193826;28;20042;-68
2023/09/15 05:54:58;;;;;;;4.30;1.63;;;12.90;99.90;;;12.97;100.00;101336.38;5183958;28;20045;-71
2023/09/15 05:57:30;;;;;;;3.88;1.55;;;12.90;99.90;;;13.00;100.00;101342.63;5184534;28;20056;-70
2023/09/15 06:00:04;;;;;;;4.30;1.42;;;12.90;99.90;;;13.06;100.00;101344.56;5200814;28;20500;-70
2023/09/15 06:02:44;;;;;;;3.25;1.77;;;12.90;99.90;;;13.11;100.00;101337.75;5199938;28;20153;-70
2023/09/15 06:05:19;;;;;;;3.15;1.27;;;13.00;99.90;;;13.16;100.00;101340.50;5183032;28;20033;-69
2023/09/15 06:07:53;;;;;;;4.75;1.55;;;13.10;99.90;;;13.19;100.00;101344.13;5184349;28;20045;-70
2023/09/15 06:10:25;;;;;;;2.80;1.60;;;13.10;99.90;;;13.23;100.00;101340.78;5179183;28;20054;-69
2023/09/15 06:12:58;;;;;;;3.72;1.30;;;13.10;99.90;;;13.38;100.00;101335.19;5168298;28;20165;-69
2023/09/15 06:15:30;;;;;;;3.22;1.27;;;13.30;99.90;;;14.06;100.00;101330.25;5185852;28;20046;-71
2023/09/15 06:18:03;;;;;;;4.28;1.45;;;13.70;99.90;;;14.81;100.00;101330.63;5194507;28;20157;-69
2023/09/15 06:20:35;;;;;;;3.25;1.45;;;14.30;99.90;;;15.70;100.00;101330.16;5180138;28;20053;-70
2023/09/15 06:23:09;;;;;;;3.38;1.38;;;15.10;99.90;;;16.58;100.00;101335.50;5181043;28;20063;-70
2023/09/15 06:25:41;;;;;;;4.05;1.63;;;15.90;99.90;;;17.35;100.00;101328.97;5176939;28;20056;-69
2023/09/15 06:28:13;;;;;;;2.65;1.27;;;16.70;99.90;;;17.88;100.00;101330.66;5181475;28;20046;-70
2023/09/15 06:30:47;;;;;;;2.97;1.20;;;17.30;99.90;;;18.18;100.00;101332.78;5181268;28;20103;-69
2023/09/15 06:33:21;;;;;;;3.75;1.55;;;17.70;99.90;;;18.33;99.36;101342.66;5197751;28;20065;-69
2023/09/15 06:35:53;;;;;;;1.98;1.30;;;17.90;99.90;;;18.35;98.21;101332.97;5178584;28;20123;-70
2023/09/15 06:38:27;;;;;;;2.67;1.30;;;18.00;99.90;;;18.39;97.97;101329.53;5182690;28;20042;-69
2023/09/15 06:40:59;;;;;;;3.17;1.20;;;18.10;99.90;;;18.51;97.64;101328.75;5180020;28;20042;-71
2023/09/15 06:43:32;;;;;;;4.13;1.48;;;18.20;99.90;;;18.67;97.01;101325.44;5184800;28;20049;-69
2023/09/15 06:46:04;;;;;;;4.88;1.52;;;18.30;99.90;;;18.80;96.09;101326.44;5198260;28;20053;-69
2023/09/15 06:48:36;;;;;;;3.15;1.50;;;18.50;99.90;;;18.65;95.18;101327.16;5183932;28;20034;-69
2023/09/15 06:51:08;;;;;;;2.45;1.00;;;18.50;99.90;;;18.56;96.60;101330.56;5180907;28;20069;-69
2023/09/15 06:53:42;;;;;;;2.92;1.35;;;18.40;99.90;;;18.75;96.52;101329.03;5177993;28;20415;-70
2023/09/15 06:56:14;;;;;;;2.78;1.23;;;18.50;99.90;;;18.96;95.88;101334.50;5177751;28;20038;-71
2023/09/15 06:58:47;;;;;;;2.58;1.48;;;18.60;99.90;;;19.18;95.35;101330.31;5185112;28;20038;-73
2023/09/15 07:01:19;;;;;;;2.20;1.13;;;18.80;99.90;;;19.35;94.23;101335.72;5186211;28;20041;-72
2023/09/15 07:03:51;;;;;;;4.18;1.33;;;19.00;99.90;;;19.58;93.93;101329.75;5189749;28;20049;-71
2023/09/15 07:06:23;;;;;;;3.92;1.27;;;19.20;99.90;;;19.85;92.59;101332.56;5181360;28;20385;-73
2023/09/15 07:08:57;;;;;;;3.35;1.40;;;19.40;99.60;;;19.93;92.72;101329.94;5183194;28;20045;-72
2023/09/15 07:11:29;;;;;;;3.50;1.45;;;19.60;99.40;;;20.25;92.27;101330.97;5181301;28;20104;-71
2023/09/15 07:14:01;;;;;;;3.20;1.30;;;19.80;99.20;;;20.49;90.98;101329.31;5181368;28;20049;-70
2023/09/15 07:16:34;;;;;;;2.95;1.30;;;20.00;98.80;;;20.82;90.05;101325.84;5181527;28;20057;-72
2023/09/15 07:19:06;;;;;;;3.63;1.35;;;20.30;98.50;;;21.18;88.63;101321.41;5181913;28;20482;-73
2023/09/15 07:21:42;;;;;;;2.88;1.27;;;20.60;98.00;;;21.25;88.36;101316.09;5183935;28;20522;-71
2023/09/15 07:24:16;;;;;;;2.97;1.35;;;20.70;97.70;;;21.52;88.22;101317.03;5179801;28;20052;-72
2023/09/15 07:26:48;;;;;;;3.78;1.30;;;20.90;97.60;;;21.80;86.86;101317.81;5198057;28;20527;-71
2023/09/15 07:29:20;;;;;;;2.17;1.20;;;21.20;97.10;;;21.95;86.41;101313.34;5176759;28;20061;-71
2023/09/15 07:31:52;;;;;;;3.33;1.42;;;21.40;96.70;;;21.75;83.26;101303.69;5181401;28;20046;-73
2023/09/15 07:34:25;;;;;;;4.43;1.25;;;21.40;95.20;;;21.64;85.11;101311.66;5179948;28;20347;-72
2023/09/15 07:36:57;;;;;;;3.17;1.27;;;21.30;95.60;;;21.73;85.42;101301.03;5180096;28;20045;-72
2023/09/15 07:39:30;;;;;;;2.17;1.20;;;21.40;95.80;;;22.02;84.46;101308.00;5180798;28;20045;-71
2023/09/15 07:42:02;;;;;;;3.38;1.15;;;21.60;95.50;;;22.03;83.69;101304.44;5183154;28;20058;-70
2023/09/15 07:44:35;;;;;;;2.47;1.15;;;21.60;94.90;;;22.12;84.11;101312.44;5179698;28;20504;-70
2023/09/15 07:47:12;;;;;;;4.97;1.40;;;21.70;95.10;;;22.04;83.31;101296.50;5169876;28;20046;-72
2023/09/15 07:49:44;;;;;;;4.20;1.33;;;21.70;94.60;;;21.98;83.94;101306.28;5181088;28;20034;-71
2023/09/15 07:52:16;;;;;;;3.53;1.10;;;21.60;94.60;;;21.99;83.47;101297.41;5180531;28;20048;-71
2023/09/15 07:54:49;;;;;;;2.10;1.40;;;21.60;94.70;;;22.19;84.25;101296.47;5194862;28;20049;-71
2023/09/15 07:57:21;;;;;;;4.57;1.27;;;21.70;94.80;;;22.36;82.72;101299.00;5198004;28;20088;-72
2023/09/15 07:59:54;;;;;;;3.25;1.38;;;21.90;94.20;;;22.46;82.82;101290.09;5188399;28;20041;-73
2023/09/15 08:02:26;;;;;;;2.72;1.25;;;21.90;94.20;;;22.67;81.96;101304.13;5198078;28;20171;-71
2023/09/15 08:04:58;;;;;;;3.30;1.20;;;22.00;94.00;;;22.93;80.94;101296.00;5182409;28;20044;-72
2023/09/15 08:07:31;;;;;;;3.03;1.50;;;22.20;93.70;;;23.10;80.85;101290.56;5200719;28;20140;-71
2023/09/15 08:10:05;;;;;;;2.97;1.20;;;22.20;93.40;;;23.39;80.10;101291.13;5181098;28;20034;-71
2023/09/15 08:12:38;;;;;;;2.20;1.05;;;22.40;93.40;;;23.92;79.19;101297.66;5181396;28;20132;-71
2023/09/15 08:15:10;;;;;;;4.13;1.40;;;22.70;93.40;;;24.48;77.50;101290.75;5178371;28;20046;-71
2023/09/15 08:17:42;;;;;;;3.83;1.40;;;23.00;92.80;;;25.06;75.69;101291.63;5178407;28;20046;-71
2023/09/15 08:20:15;;;;;;;3.65;1.20;;;23.40;92.30;;;25.63;74.56;101283.47;5184898;28;20061;-71
2023/09/15 08:22:47;;;;;;;5.30;1.50;;;23.70;92.10;;;26.09;72.50;101288.78;5186604;28;20041;-72
2023/09/15 08:25:21;;;;;;;3.75;1.27;;;24.00;91.40;;;26.72;71.28;101285.56;5181635;28;20041;-72
2023/09/15 08:27:53;;;;;;;2.60;1.10;;;24.30;91.00;;;27.68;68.63;101287.56;5187520;28;20400;-71
2023/09/15 08:30:25;;;;;;;2.75;1.20;;;24.90;90.20;;;28.55;66.34;101289.44;5180817;28;20042;-72
2023/09/15 08:32:57;;;;;;;3.53;1.23;;;25.60;88.40;;;29.31;63.72;101284.22;5186500;28;20053;-73
2023/09/15 08:35:29;;;;;;;1.65;1.02;;;26.30;85.40;;;30.03;61.38;101294.16;5186935;28;20519;-72
2023/09/15 08:38:02;;;;;;;2.28;1.05;;;27.10;82.00;;;30.40;60.27;101286.44;5182527;28;20042;-72
2023/09/15 08:40:47;;;;;;;4.05;1.23;;;27.60;79.00;;;30.68;60.10;101286.22;5181617;28;20060;-71
2023/09/15 08:43:19;;;;;;;3.67;1.30;;;27.90;77.50;;;30.97;58.62;101290.41;5179890;28;20037;-73
2023/09/15 08:45:53;;;;;;;4.30;1.50;;;28.30;75.10;;;31.10;57.61;101288.03;5181841;28;20115;-75
2023/09/15 08:48:30;;;;;;;3.72;1.55;;;28.60;73.00;;;30.08;57.36;101284.09;5185139;28;20053;-64
2023/09/15 08:51:05;;;;;;;3.00;1.00;;;28.10;70.30;;;29.30;60.15;101282.47;5179531;28;20407;-63
2023/09/15 08:53:38;;;;;;;3.50;1.17;;;27.60;72.40;;;28.90;61.70;101281.13;5182828;28;20412;-68
2023/09/15 08:56:11;;;;;;;2.80;1.10;;;27.20;73.50;;;28.99;61.62;101271.91;5179201;28;20404;-72
2023/09/15 08:58:44;;;;;;;2.55;1.02;;;27.30;73.20;;;28.82;62.10;101277.81;5180625;28;20042;-71
2023/09/15 09:01:18;;;;;;;6.13;1.70;;;27.30;73.20;;;28.54;61.78;101280.50;5183939;28;20050;-72
2023/09/15 09:03:50;;;;;;;;;;;27.20;72.20;;;27.98;62.52;101283.13;5183322;28;20112;-72
2023/09/15 09:06:24;;;;;;;2.95;0.95;;;27.00;72.30;;;27.40;64.57;101281.19;5186535;28;19926;-72
2023/09/15 09:08:56;;;;;;;;;;;26.60;73.60;;;26.76;65.86;101287.25;5197230;28;20491;-72
2023/09/15 09:11:31;;;;;;;3.22;1.17;;;26.20;74.30;;;26.29;66.85;101279.44;5180785;28;20072;-72
2023/09/15 09:14:10;;;;;;;4.30;1.33;;;25.80;75.00;;;26.02;67.95;101271.13;5180382;28;20065;-71
2023/09/15 09:16:43;;;;;;;3.30;1.30;;;25.50;75.90;;;25.87;69.18;101282.09;5177426;28;20041;-72
2023/09/15 09:19:15;;;;;;;7.45;1.65;;;25.30;77.70;;;25.56;69.71;101280.03;5179837;28;20129;-71
2023/09/15 09:21:48;;;;;;;4.25;1.58;;;25.00;77.50;;;25.35;70.71;101285.75;5198005;28;20056;-72
2023/09/15 09:24:20;;;;;;;2.78;1.50;;;24.80;78.30;;;25.21;70.86;101271.81;5182311;28;20224;-71
2023/09/15 09:26:55;;;;;;;2.80;1.40;;;24.60;79.20;;;25.12;72.02;101271.06;5198030;28;20041;-72
2023/09/15 09:29:28;;;;;;;2.17;1.05;;;24.60;79.80;;;25.19;73.50;101268.28;5199907;28;20516;-71
2023/09/15 09:32:00;;;;;;;3.40;1.10;;;24.60;81.30;;;25.29;73.15;101261.88;5199549;28;20507;-73
2023/09/15 09:34:33;;;;;;;1.88;0.98;;;24.60;81.80;;;25.48;73.04;101265.94;5179175;28;20194;-71
2023/09/15 09:37:05;;;;;;;2.15;1.20;;;24.70;81.50;;;25.57;71.18;101268.44;5196964;28;20054;-72
2023/09/15 09:39:38;;;;;;;4.20;1.13;;;24.80;79.90;;;25.61;71.07;101264.78;5191371;28;20037;-71
2023/09/15 09:42:13;;;;;;;4.18;1.40;;;24.80;79.70;;;25.59;71.08;101266.63;5198661;28;20045;-72
2023/09/15 09:44:45;;;;;;;2.80;1.20;;;24.80;79.80;;;25.64;71.51;101264.75;5179942;28;20053;-71
2023/09/15 09:47:18;;;;;;;1.88;1.30;;;24.90;80.10;;;25.77;71.59;101254.72;5177205;28;20610;-70
2023/09/15 09:49:52;;;;;;;3.25;1.27;;;24.90;80.40;;;25.89;71.03;101254.47;5182564;28;20139;-71
2023/09/15 09:52:26;;;;;;;3.28;1.25;;;25.10;80.10;;;25.85;70.05;101241.22;5198544;28;20054;-71
2023/09/15 09:55:02;;;;;;;2.67;1.17;;;25.00;79.00;;;25.83;70.28;101237.72;5184884;28;20535;-72
2023/09/15 09:57:37;;;;;;;4.32;1.30;;;25.10;79.20;;;25.88;70.96;101242.00;5166993;28;20056;-72
2023/09/15 10:00:10;;;;;;;2.85;1.00;;;25.10;80.00;;;26.00;70.16;101234.66;5185266;28;20546;-73
2023/09/15 10:02:42;;;;;;;4.28;1.40;;;25.20;79.40;;;26.11;69.29;101237.97;5191707;28;20045;-72
2023/09/15 10:05:15;;;;;;;2.95;1.33;;;25.20;78.60;;;26.16;68.57;101231.63;5188592;28;20049;-72
2023/09/15 10:07:47;;;;;;;4.05;1.70;;;25.30;77.90;;;26.27;69.33;101233.16;5184648;28;20045;-71
2023/09/15 10:10:21;;;;;;;1.88;1.23;;;25.40;78.50;;;26.32;68.15;101241.94;5185195;28;20049;-71
2023/09/15 10:12:54;;;;;;;3.85;1.20;;;25.40;77.50;;;26.31;68.56;101237.53;5200636;28;20057;-71
2023/09/15 10:15:27;;;;;;;3.60;1.40;;;25.50;78.30;;;26.31;68.73;101226.84;5188888;28;20279;-72
2023/09/15 10:17:59;;;;;;;3.15;1.40;;;25.50;77.90;;;25.97;67.90;101225.81;5184609;28;20038;-72
2023/09/15 10:20:32;;;;;;;3.60;1.63;;;25.20;76.50;;;25.88;68.75;101222.44;5185282;28;20038;-71
2023/09/15 10:23:06;;;;;;;2.53;1.27;;;25.20;77.50;;;25.91;69.42;101209.03;5202188;28;20073;-71
2023/09/15 10:25:43;;;;;;;3.63;1.27;;;25.20;77.90;;;26.02;70.13;101204.34;5184928;28;20042;-71
2023/09/15 10:28:18;;;;;;;2.20;1.40;;;25.30;78.70;;;26.15;69.33;101199.59;5199720;28;20065;-71
2023/09/15 10:30:55;;;;;;;3.00;1.60;;;25.30;78.10;;;26.30;68.53;101206.38;5185432;28;20065;-72
2023/09/15 10:33:28;;;;;;;2.90;1.23;;;25.50;77.80;;;26.40;68.05;101202.56;5185028;28;20128;-71
2023/09/15 10:36:05;;;;;;;3.17;1.30;;;25.50;77.00;;;26.38;67.67;101201.72;5184178;28;20090;-72